Time;durP1;ratioP1;P1;durP2;ratioP2;P2;SDS_P1;SDS_P2;PMS_P1;PMS_P2;Temp;Humidity;BMP_temperature;BMP_pressure;BME280_temperature;BME280_humidity;BME280_pressure;Samples;Min_cycle;Max_cycle;Signal;HPM_P1;HPM_P2
2022/05/31 00:02:06;;;;;;;10.25;8.07;;;7.50;99.90;;;;;;5037048;28;20407;-60
2022/05/31 00:04:33;;;;;;;9.52;8.52;;;7.60;99.90;;;;;;5039498;28;20046;-60
2022/05/31 00:06:59;;;;;;;8.70;7.63;;;7.60;99.90;;;;;;5031765;28;20037;-59
2022/05/31 00:09:25;;;;;;;9.18;7.80;;;7.90;99.90;;;;;;5037991;28;20046;-59
2022/05/31 00:11:51;;;;;;;9.52;8.02;;;7.70;99.90;;;;;;5039487;28;20033;-59
2022/05/31 00:14:18;;;;;;;9.77;7.88;;;7.90;99.90;;;;;;5034748;28;20046;-59
2022/05/31 00:16:45;;;;;;;11.50;8.95;;;7.90;99.90;;;;;;5038416;28;20084;-59
2022/05/31 00:19:12;;;;;;;9.77;7.93;;;7.80;99.90;;;;;;5014326;28;20049;-59
2022/05/31 00:21:43;;;;;;;9.27;8.40;;;8.00;99.90;;;;;;5041224;28;20116;-59
2022/05/31 00:24:12;;;;;;;8.68;7.68;;;8.00;99.90;;;;;;5039110;28;20038;-59
2022/05/31 00:26:39;;;;;;;10.65;8.60;;;8.00;99.90;;;;;;5036049;28;20048;-59
2022/05/31 00:29:06;;;;;;;10.13;8.52;;;7.70;99.90;;;;;;5039311;28;20048;-60
2022/05/31 00:31:32;;;;;;;12.15;9.60;;;8.00;99.90;;;;;;5035183;28;20053;-60
2022/05/31 00:33:57;;;;;;;9.60;8.57;;;7.80;99.90;;;;;;5023510;28;20047;-60
2022/05/31 00:36:23;;;;;;;10.70;9.43;;;7.90;99.90;;;;;;5043372;28;20407;-59
2022/05/31 00:38:49;;;;;;;9.95;8.82;;;8.00;99.90;;;;;;5045387;28;20025;-59
2022/05/31 00:41:23;;;;;;;11.77;10.43;;;7.90;99.90;;;;;;5030869;28;20522;-60
2022/05/31 00:44:00;;;;;;;13.95;9.95;;;8.00;99.90;;;;;;5033990;28;20382;-59
2022/05/31 00:46:33;;;;;;;11.40;10.40;;;8.10;99.90;;;;;;5037838;28;20138;-59
2022/05/31 00:49:03;;;;;;;12.30;11.02;;;8.00;99.90;;;;;;5038958;28;20115;-59
2022/05/31 00:51:39;;;;;;;14.18;11.95;;;8.20;99.90;;;;;;5033835;28;20037;-59
2022/05/31 00:54:20;;;;;;;13.18;11.10;;;8.20;99.90;;;;;;5037398;28;20029;-60
2022/05/31 00:56:48;;;;;;;12.32;10.80;;;8.20;99.90;;;;;;5036480;28;20118;-59
2022/05/31 00:59:16;;;;;;;13.43;12.05;;;8.00;99.90;;;;;;5052822;28;20048;-59
2022/05/31 01:01:47;;;;;;;12.40;11.20;;;8.10;99.90;;;;;;5035648;28;20092;-59
2022/05/31 01:04:14;;;;;;;13.43;10.73;;;8.20;99.90;;;;;;5052255;28;20073;-59
2022/05/31 01:06:40;;;;;;;13.15;10.48;;;8.00;99.90;;;;;;5035850;28;20083;-60
2022/05/31 01:09:06;;;;;;;13.10;10.93;;;8.20;99.90;;;;;;5054758;28;20064;-60
2022/05/31 01:11:38;;;;;;;12.73;10.43;;;8.00;99.90;;;;;;5038269;28;20040;-59
2022/05/31 01:14:05;;;;;;;14.13;12.18;;;8.20;99.90;;;;;;5036960;28;20091;-60
2022/05/31 01:16:31;;;;;;;11.45;10.05;;;8.40;99.90;;;;;;5040193;28;20064;-60
2022/05/31 01:18:57;;;;;;;10.65;9.52;;;8.30;99.90;;;;;;5038201;28;20036;-59
2022/05/31 01:21:23;;;;;;;11.18;9.10;;;8.30;99.90;;;;;;5037802;28;20288;-59
2022/05/31 01:24:09;;;;;;;17.77;10.90;;;8.10;99.90;;;;;;5035209;28;20531;-60
2022/05/31 01:26:45;;;;;;;11.70;10.25;;;8.40;99.90;;;;;;5040797;28;20490;-60
2022/05/31 01:29:20;;;;;;;11.18;9.45;;;8.20;99.90;;;;;;5038230;28;20029;-60
2022/05/31 01:31:57;;;;;;;11.45;9.43;;;8.10;99.90;;;;;;5050419;28;20044;-60
2022/05/31 01:34:38;;;;;;;10.05;9.15;;;8.30;99.90;;;;;;5039044;28;20049;-60
2022/05/31 01:37:05;;;;;;;10.20;8.25;;;8.40;99.90;;;;;;5034887;28;20179;-60
2022/05/31 01:39:46;;;;;;;9.82;8.43;;;8.40;99.90;;;;;;5034007;28;20369;-60
2022/05/31 01:42:21;;;;;;;9.07;8.15;;;8.30;99.90;;;;;;5035173;28;20029;-60
2022/05/31 01:45:12;;;;;;;10.38;7.80;;;8.40;99.90;;;;;;5054985;28;20246;-61
2022/05/31 01:47:38;;;;;;;8.45;7.25;;;8.20;99.90;;;;;;5051168;28;20102;-60
2022/05/31 01:50:09;;;;;;;10.48;7.32;;;8.30;99.90;;;;;;5038753;28;20044;-61
2022/05/31 01:52:35;;;;;;;8.95;7.72;;;8.30;99.90;;;;;;5038513;28;20068;-60
2022/05/31 01:55:02;;;;;;;8.45;6.50;;;8.30;99.90;;;;;;5053809;28;20828;-60
2022/05/31 01:57:31;;;;;;;5.93;5.35;;;8.30;99.90;;;;;;5053560;28;20075;-60
2022/05/31 02:00:04;;;;;;;7.00;6.20;;;8.30;99.90;;;;;;5054038;28;20073;-60
2022/05/31 02:02:30;;;;;;;8.25;7.43;;;8.40;99.90;;;;;;5039315;28;20121;-60
2022/05/31 02:04:56;;;;;;;6.45;4.20;;;8.40;99.90;;;;;;5017406;28;20037;-60
2022/05/31 02:07:24;;;;;;;4.72;3.33;;;8.80;99.90;;;;;;5051319;28;20099;-61
2022/05/31 02:09:52;;;;;;;5.40;5.00;;;8.70;99.90;;;;;;5036783;28;20049;-60
2022/05/31 02:12:20;;;;;;;7.45;4.90;;;8.70;99.90;;;;;;5036406;28;20230;-60
2022/05/31 02:14:46;;;;;;;10.48;5.43;;;8.70;99.90;;;;;;5036815;28;20387;-59
2022/05/31 02:17:12;;;;;;;7.50;5.30;;;8.70;99.90;;;;;;5052165;28;20055;-59
2022/05/31 02:19:38;;;;;;;5.88;5.15;;;8.70;99.90;;;;;;5038429;28;20072;-59
2022/05/31 02:22:07;;;;;;;6.75;5.32;;;8.90;99.90;;;;;;5038469;28;20071;-60
2022/05/31 02:24:34;;;;;;;6.43;5.20;;;8.80;99.90;;;;;;5037111;28;20537;-59
2022/05/31 02:27:00;;;;;;;5.93;5.05;;;8.90;99.90;;;;;;5041843;28;20045;-59
2022/05/31 02:29:30;;;;;;;5.95;5.35;;;8.80;99.90;;;;;;5039950;28;20048;-59
2022/05/31 02:31:58;;;;;;;6.45;4.70;;;8.70;99.90;;;;;;5034262;28;20037;-59
2022/05/31 02:34:26;;;;;;;6.82;4.57;;;8.70;99.90;;;;;;5036403;28;20095;-60
2022/05/31 02:36:52;;;;;;;4.82;4.40;;;8.70;99.90;;;;;;5040242;28;20037;-59
2022/05/31 02:39:18;;;;;;;5.55;4.05;;;8.80;99.90;;;;;;5052875;28;20338;-59
2022/05/31 02:41:44;;;;;;;6.60;4.30;;;8.70;99.90;;;;;;5053195;28;20077;-59
2022/05/31 02:44:11;;;;;;;6.10;4.10;;;8.80;99.90;;;;;;5051613;28;20049;-59
2022/05/31 02:46:37;;;;;;;5.20;4.63;;;8.80;99.90;;;;;;5039693;28;20051;-59
2022/05/31 02:49:04;;;;;;;4.50;4.07;;;8.70;99.90;;;;;;5036280;28;20475;-59
2022/05/31 02:51:37;;;;;;;5.95;4.30;;;8.70;99.90;;;;;;5034119;28;20450;-59
2022/05/31 02:54:04;;;;;;;5.20;3.80;;;8.70;99.90;;;;;;5037116;28;20108;-60
2022/05/31 02:56:30;;;;;;;5.30;4.72;;;8.70;99.90;;;;;;5041333;28;20449;-59
2022/05/31 02:58:56;;;;;;;5.95;3.90;;;8.80;99.90;;;;;;5016012;28;20033;-60
2022/05/31 03:01:30;;;;;;;5.53;3.00;;;9.00;99.90;;;;;;5039584;28;20095;-60
2022/05/31 03:03:56;;;;;;;3.97;2.75;;;8.90;99.90;;;;;;5034973;28;20041;-60
2022/05/31 03:06:22;;;;;;;3.65;2.83;;;8.80;99.90;;;;;;5054530;28;20045;-59
2022/05/31 03:08:48;;;;;;;3.90;3.15;;;9.00;99.90;;;;;;5038515;28;20142;-60
2022/05/31 03:11:32;;;;;;;3.92;3.47;;;9.10;99.90;;;;;;5034893;28;20045;-60
2022/05/31 03:14:22;;;;;;;4.63;3.83;;;9.00;99.90;;;;;;5039570;28;20029;-59
2022/05/31 03:17:01;;;;;;;3.67;2.67;;;8.90;99.90;;;;;;5039202;28;20033;-60
2022/05/31 03:19:31;;;;;;;5.43;2.95;;;8.90;99.90;;;;;;5031506;28;20119;-59
2022/05/31 03:22:06;;;;;;;5.28;3.15;;;8.90;99.90;;;;;;5039124;28;20053;-59
2022/05/31 03:24:41;;;;;;;5.65;2.28;;;8.90;99.90;;;;;;5034475;28;20060;-59
2022/05/31 03:27:10;;;;;;;3.40;2.00;;;8.90;99.90;;;;;;5039480;28;20045;-59
2022/05/31 03:29:39;;;;;;;5.93;2.45;;;9.00;99.90;;;;;;5039079;28;20419;-59
2022/05/31 03:32:06;;;;;;;3.25;1.90;;;9.00;99.90;;;;;;5045855;28;20119;-61
2022/05/31 03:34:32;;;;;;;5.40;3.05;;;9.10;99.90;;;;;;5033685;28;20048;-60
2022/05/31 03:36:58;;;;;;;4.90;3.47;;;9.30;99.90;;;;;;5054207;28;20042;-60
2022/05/31 03:39:24;;;;;;;5.68;3.90;;;9.30;99.90;;;;;;5033720;28;20491;-60
2022/05/31 03:41:50;;;;;;;5.43;4.18;;;9.40;99.90;;;;;;5053736;28;20113;-60
2022/05/31 03:44:15;;;;;;;5.65;3.83;;;9.70;99.90;;;;;;5037292;28;20044;-60
2022/05/31 03:46:41;;;;;;;6.38;4.40;;;9.80;99.90;;;;;;5051645;28;20033;-58
2022/05/31 03:49:07;;;;;;;5.22;4.70;;;9.80;99.90;;;;;;5034571;28;20052;-60
2022/05/31 03:51:33;;;;;;;4.95;4.45;;;9.80;99.90;;;;;;5033802;28;20044;-60
2022/05/31 03:53:58;;;;;;;4.80;4.20;;;10.10;99.90;;;;;;5037896;28;20127;-60
2022/05/31 03:56:24;;;;;;;6.78;4.65;;;10.00;99.90;;;;;;5034270;28;20169;-61
2022/05/31 03:58:50;;;;;;;7.00;4.63;;;10.20;99.90;;;;;;5032493;28;20487;-60
2022/05/31 04:01:15;;;;;;;6.43;4.38;;;10.20;99.90;;;;;;5035843;28;20091;-59
2022/05/31 04:03:42;;;;;;;4.53;4.03;;;10.30;99.90;;;;;;5036113;28;20547;-59
2022/05/31 04:06:08;;;;;;;6.82;5.45;;;10.30;99.90;;;;;;5056046;28;20120;-60
2022/05/31 04:08:34;;;;;;;6.55;5.55;;;10.40;99.90;;;;;;5036083;28;20160;-60
2022/05/31 04:11:00;;;;;;;7.38;6.15;;;10.50;99.90;;;;;;5033429;28;20100;-59
2022/05/31 04:13:27;;;;;;;7.53;6.32;;;10.50;99.90;;;;;;5035544;28;20380;-60
2022/05/31 04:16:10;;;;;;;8.02;7.22;;;10.50;99.90;;;;;;5036165;28;20121;-60
2022/05/31 04:18:37;;;;;;;7.40;6.70;;;10.60;99.90;;;;;;5037125;28;20041;-60
2022/05/31 04:21:05;;;;;;;8.25;6.90;;;10.50;99.90;;;;;;5014526;28;20103;-60
2022/05/31 04:26:15;;;;;;;7.38;6.63;;;10.60;99.90;;;;;;5033822;28;20131;-60
2022/05/31 04:28:41;;;;;;;7.22;6.05;;;10.70;99.90;;;;;;5040658;28;20122;-59
2022/05/31 04:31:08;;;;;;;8.30;7.50;;;10.60;99.90;;;;;;5053468;28;20092;-60
2022/05/31 04:33:33;;;;;;;10.23;7.57;;;10.80;99.90;;;;;;5038819;28;20474;-60
2022/05/31 04:36:05;;;;;;;8.73;7.20;;;10.70;99.90;;;;;;5042759;28;20033;-59
2022/05/31 04:38:31;;;;;;;10.05;8.00;;;10.70;99.90;;;;;;5030911;28;20096;-60
2022/05/31 04:40:57;;;;;;;8.70;7.50;;;10.80;99.90;;;;;;5038380;28;20037;-59
2022/05/31 04:43:22;;;;;;;9.43;8.13;;;10.70;99.90;;;;;;5016538;28;20517;-59
2022/05/31 04:45:48;;;;;;;9.02;8.13;;;10.80;99.90;;;;;;5038272;28;20029;-58
2022/05/31 04:48:14;;;;;;;10.38;9.38;;;10.80;99.90;;;;;;5035813;28;20045;-58
2022/05/31 04:50:40;;;;;;;11.20;9.10;;;10.70;99.90;;;;;;5040920;28;20033;-59
2022/05/31 04:53:05;;;;;;;11.43;9.70;;;10.80;99.90;;;;;;5033483;28;20046;-59
2022/05/31 04:55:31;;;;;;;10.77;9.68;;;10.70;99.90;;;;;;5038392;28;20411;-58
2022/05/31 04:57:57;;;;;;;11.00;9.45;;;10.70;99.90;;;;;;5041962;28;21004;-58
2022/05/31 05:00:23;;;;;;;12.10;10.38;;;10.80;99.90;;;;;;5036309;28;20037;-58
2022/05/31 05:02:48;;;;;;;12.70;10.82;;;10.90;99.90;;;;;;5034782;28;20488;-60
2022/05/31 05:05:16;;;;;;;11.48;10.38;;;10.90;99.90;;;;;;5052469;28;20037;-58
2022/05/31 05:07:41;;;;;;;13.90;10.90;;;10.90;99.90;;;;;;5036397;28;20072;-58
2022/05/31 05:10:09;;;;;;;10.98;9.88;;;10.90;99.90;;;;;;5055421;28;20547;-58
2022/05/31 05:12:35;;;;;;;10.13;8.73;;;10.90;99.90;;;;;;5035676;28;20589;-58
2022/05/31 05:15:01;;;;;;;8.93;8.13;;;10.90;99.90;;;;;;5036211;28;20564;-59
2022/05/31 05:17:27;;;;;;;9.75;8.35;;;10.90;99.90;;;;;;5057307;28;20045;-59
2022/05/31 05:19:53;;;;;;;9.13;8.23;;;10.90;99.90;;;;;;5054433;28;20506;-59
2022/05/31 05:22:19;;;;;;;8.88;7.78;;;11.00;99.90;;;;;;5037992;28;20037;-59
2022/05/31 05:24:45;;;;;;;8.90;8.02;;;11.00;99.90;;;;;;5038159;28;20103;-60
2022/05/31 05:27:11;;;;;;;9.00;8.10;;;10.90;99.90;;;;;;5018250;28;20045;-60
2022/05/31 05:32:20;;;;;;;8.90;7.90;;;11.00;99.90;;;;;;5037347;28;20044;-59
2022/05/31 05:34:54;;;;;;;8.65;7.82;;;11.00;99.90;;;;;;5037262;28;20052;-59
2022/05/31 05:37:23;;;;;;;9.98;7.18;;;11.10;99.90;;;;;;5037064;28;20050;-59
2022/05/31 05:39:49;;;;;;;9.35;7.35;;;11.10;99.90;;;;;;5032191;28;20036;-59
2022/05/31 05:42:16;;;;;;;9.32;7.82;;;11.10;99.90;;;;;;5039113;28;20403;-59
2022/05/31 05:44:42;;;;;;;9.75;6.80;;;11.10;99.90;;;;;;5038519;28;20052;-60
2022/05/31 05:47:10;;;;;;;7.15;6.47;;;11.20;99.90;;;;;;5046584;28;20449;-59
2022/05/31 05:49:36;;;;;;;9.88;7.40;;;11.20;99.90;;;;;;5052609;28;20053;-59
2022/05/31 05:52:06;;;;;;;8.98;7.13;;;11.30;99.90;;;;;;5036392;28;20033;-59
2022/05/31 05:54:32;;;;;;;8.18;6.85;;;11.30;99.90;;;;;;5040515;28;20047;-58
2022/05/31 05:56:59;;;;;;;7.80;6.50;;;11.30;99.90;;;;;;5038185;28;20045;-59
2022/05/31 05:59:24;;;;;;;9.70;6.82;;;11.40;99.90;;;;;;5044950;28;20112;-58
2022/05/31 06:01:57;;;;;;;7.80;6.70;;;11.40;99.90;;;;;;5022975;28;20135;-59
2022/05/31 06:04:29;;;;;;;8.55;6.75;;;11.40;99.90;;;;;;5036702;28;20398;-58
2022/05/31 06:07:10;;;;;;;7.95;6.43;;;11.60;99.90;;;;;;5046659;28;20128;-59
2022/05/31 06:09:36;;;;;;;10.52;7.13;;;11.60;99.90;;;;;;5032405;28;20421;-60
2022/05/31 06:12:10;;;;;;;6.80;5.93;;;11.70;99.90;;;;;;5036416;28;20041;-60
2022/05/31 06:14:44;;;;;;;8.43;7.07;;;11.70;99.90;;;;;;5035937;28;20119;-59
2022/05/31 06:17:17;;;;;;;7.22;6.50;;;11.80;99.90;;;;;;5042324;28;20140;-59
2022/05/31 06:19:46;;;;;;;6.57;5.97;;;12.00;99.90;;;;;;5061658;28;20077;-60
2022/05/31 06:22:11;;;;;;;8.23;6.90;;;11.90;99.90;;;;;;5037168;28;20522;-60
2022/05/31 06:24:39;;;;;;;8.32;6.70;;;11.90;99.90;;;;;;5039008;28;20033;-60
2022/05/31 06:27:06;;;;;;;9.82;5.80;;;12.00;99.90;;;;;;5044454;28;20044;-60
2022/05/31 06:29:32;;;;;;;6.18;5.40;;;12.00;99.90;;;;;;5036135;28;20569;-61
2022/05/31 06:31:57;;;;;;;6.40;5.80;;;12.10;99.90;;;;;;5046194;28;20044;-60
2022/05/31 06:34:24;;;;;;;7.25;5.78;;;12.00;99.90;;;;;;5033781;28;20050;-60
2022/05/31 06:37:00;;;;;;;5.80;5.30;;;12.10;99.90;;;;;;5030487;28;20124;-60
2022/05/31 06:39:26;;;;;;;6.55;5.50;;;12.20;99.90;;;;;;5029660;28;20511;-60
2022/05/31 06:41:54;;;;;;;7.10;5.70;;;12.20;99.90;;;;;;5024701;28;20128;-59
2022/05/31 06:44:20;;;;;;;4.78;4.20;;;12.20;99.90;;;;;;5038796;28;20060;-59
2022/05/31 06:46:46;;;;;;;4.90;4.40;;;12.30;99.90;;;;;;5043451;28;20044;-59
2022/05/31 06:49:11;;;;;;;6.10;4.70;;;12.30;99.90;;;;;;5032557;28;20073;-59
2022/05/31 06:57:05;;;;;;;5.80;4.60;;;12.30;99.90;;;;;;5048844;28;20466;-60
2022/05/31 06:59:31;;;;;;;5.43;4.93;;;12.40;99.90;;;;;;5052950;28;20410;-60
2022/05/31 07:02:04;;;;;;;5.78;5.20;;;12.40;99.90;;;;;;5019766;28;20124;-60
2022/05/31 07:04:31;;;;;;;5.80;5.03;;;12.40;99.90;;;;;;5016950;28;20395;-60
2022/05/31 07:06:57;;;;;;;6.50;4.63;;;12.50;99.90;;;;;;5033676;28;20041;-60
2022/05/31 07:09:23;;;;;;;5.63;4.65;;;12.60;99.90;;;;;;5025924;28;20099;-59
2022/05/31 07:11:48;;;;;;;7.50;5.28;;;12.60;99.90;;;;;;5036405;28;20053;-60
2022/05/31 07:14:14;;;;;;;5.90;5.40;;;12.70;99.90;;;;;;5039707;28;20076;-60
2022/05/31 07:16:41;;;;;;;6.15;4.63;;;12.80;99.90;;;;;;5042129;28;20041;-60
2022/05/31 07:19:07;;;;;;;8.27;5.20;;;12.90;99.90;;;;;;5050593;28;20041;-60
2022/05/31 07:21:33;;;;;;;8.32;4.85;;;13.10;99.90;;;;;;5044206;28;20459;-60
2022/05/31 07:23:59;;;;;;;4.60;4.20;;;13.30;99.90;;;;;;5036525;28;20415;-60
2022/05/31 07:26:26;;;;;;;6.38;4.72;;;13.30;99.90;;;;;;5051623;28;20289;-60
2022/05/31 07:28:52;;;;;;;5.88;4.47;;;13.50;99.90;;;;;;5038196;28;20586;-60
2022/05/31 07:31:17;;;;;;;5.43;4.80;;;13.70;99.90;;;;;;5023115;28;20183;-60
2022/05/31 07:33:43;;;;;;;5.20;4.68;;;13.90;99.90;;;;;;5053032;28;20049;-60
2022/05/31 07:36:09;;;;;;;4.47;3.95;;;13.90;99.90;;;;;;5044338;28;20122;-60
2022/05/31 07:38:35;;;;;;;5.70;4.53;;;14.20;99.90;;;;;;5049981;28;20037;-58
2022/05/31 07:41:02;;;;;;;5.95;4.28;;;14.20;99.90;;;;;;5041360;28;20530;-59
2022/05/31 07:43:27;;;;;;;4.60;4.10;;;14.30;99.90;;;;;;5036301;28;20565;-59
2022/05/31 07:46:10;;;;;;;5.22;4.15;;;14.40;99.90;;;;;;5037210;28;20033;-59
2022/05/31 07:48:38;;;;;;;4.30;3.50;;;14.40;99.90;;;;;;5034877;28;20057;-59
2022/05/31 07:51:05;;;;;;;5.53;4.20;;;14.50;99.90;;;;;;5029671;28;20043;-59
2022/05/31 07:53:31;;;;;;;4.05;3.42;;;14.60;99.90;;;;;;5032309;28;20044;-59
2022/05/31 07:55:59;;;;;;;4.25;3.85;;;14.70;99.90;;;;;;5059910;28;20407;-60
2022/05/31 07:58:31;;;;;;;5.80;4.35;;;14.80;99.90;;;;;;5057204;28;20132;-59
2022/05/31 08:00:58;;;;;;;4.68;3.55;;;14.90;99.90;;;;;;5039768;28;20550;-59
2022/05/31 08:03:23;;;;;;;5.35;3.60;;;14.90;99.90;;;;;;5031544;28;20102;-61
2022/05/31 08:05:49;;;;;;;3.70;3.25;;;15.10;99.90;;;;;;5037561;28;20032;-60
2022/05/31 08:08:15;;;;;;;5.07;3.10;;;15.30;99.90;;;;;;5049905;28;20514;-60
2022/05/31 08:10:41;;;;;;;3.75;2.97;;;15.40;99.90;;;;;;5034073;28;20079;-60
2022/05/31 08:13:06;;;;;;;3.75;3.08;;;15.50;99.90;;;;;;5040711;28;20522;-60
2022/05/31 08:15:32;;;;;;;4.00;3.45;;;15.30;99.90;;;;;;5061519;28;20033;-60
2022/05/31 08:17:58;;;;;;;4.13;3.10;;;15.40;99.90;;;;;;5045550;28;20048;-59
2022/05/31 08:20:24;;;;;;;3.42;3.13;;;15.30;99.90;;;;;;5038860;28;20104;-60
2022/05/31 08:22:49;;;;;;;4.45;3.03;;;15.60;99.90;;;;;;5031566;28;20032;-59
2022/05/31 08:25:16;;;;;;;6.20;2.88;;;15.60;99.90;;;;;;5046265;28;20128;-61
2022/05/31 08:27:41;;;;;;;3.72;2.70;;;15.80;99.90;;;;;;5032723;28;20128;-60
2022/05/31 08:30:07;;;;;;;3.88;2.60;;;15.70;99.90;;;;;;5048857;28;20566;-60
2022/05/31 08:32:34;;;;;;;2.42;2.22;;;15.80;99.90;;;;;;5049016;28;20033;-60
2022/05/31 08:35:00;;;;;;;3.17;2.75;;;16.10;99.90;;;;;;5033972;28;20051;-60
2022/05/31 08:37:27;;;;;;;3.90;2.65;;;16.00;99.90;;;;;;5043125;28;20042;-59
2022/05/31 08:39:53;;;;;;;3.17;2.10;;;15.90;99.90;;;;;;5044765;28;20479;-59
2022/05/31 08:42:22;;;;;;;3.47;2.42;;;15.80;99.90;;;;;;5030809;28;20090;-60
2022/05/31 08:45:09;;;;;;;3.40;2.28;;;15.80;99.90;;;;;;5039289;28;20049;-60
2022/05/31 08:47:40;;;;;;;3.90;2.35;;;16.00;99.90;;;;;;5062269;28;20116;-60
2022/05/31 08:53:38;;;;;;;5.28;2.03;;;15.70;99.90;;;;;;5033065;28;20157;-59
2022/05/31 08:59:12;;;;;;;5.05;2.20;;;15.40;99.90;;;;;;5032751;28;20084;-59
2022/05/31 09:01:46;;;;;;;4.80;2.45;;;15.30;99.90;;;;;;5033827;28;20077;-60
2022/05/31 09:04:22;;;;;;;2.25;1.70;;;15.60;99.90;;;;;;5026440;28;20049;-59
2022/05/31 09:07:12;;;;;;;4.32;2.05;;;16.00;99.90;;;;;;5062849;28;20050;-59
2022/05/31 09:09:53;;;;;;;4.05;2.45;;;16.20;99.90;;;;;;5034454;28;20569;-59
2022/05/31 09:12:39;;;;;;;4.50;2.30;;;16.10;99.90;;;;;;5034914;28;20041;-60
2022/05/31 09:15:20;;;;;;;3.65;2.30;;;16.10;99.90;;;;;;5062696;28;20488;-60
2022/05/31 09:18:07;;;;;;;2.80;1.83;;;16.20;99.90;;;;;;5032327;28;20045;-60
2022/05/31 09:20:47;;;;;;;2.85;2.22;;;17.00;99.90;;;;;;5034740;28;20060;-60
2022/05/31 09:23:28;;;;;;;3.75;2.58;;;17.20;99.90;;;;;;5035591;28;20038;-59
2022/05/31 09:26:06;;;;;;;3.63;2.40;;;17.40;99.90;;;;;;5031566;28;20116;-60
2022/05/31 09:28:42;;;;;;;3.28;2.13;;;17.40;99.90;;;;;;5032960;28;20111;-60
2022/05/31 09:31:30;;;;;;;3.92;2.28;;;17.30;99.90;;;;;;5047319;28;20056;-59
2022/05/31 09:34:27;;;;;;;4.50;2.40;;;17.40;99.90;;;;;;5011547;28;20072;-60
2022/05/31 09:37:03;;;;;;;3.08;2.40;;;17.40;99.90;;;;;;5016796;28;20046;-60
2022/05/31 09:40:13;;;;;;;3.88;2.17;;;17.50;99.90;;;;;;5060655;28;20076;-60
2022/05/31 09:43:05;;;;;;;2.33;1.67;;;17.50;99.90;;;;;;4975662;28;20034;-60
2022/05/31 09:45:35;;;;;;;4.45;1.42;;;17.70;99.90;;;;;;4977719;28;20137;-61
2022/05/31 09:48:04;;;;;;;3.22;1.95;;;17.90;99.90;;;;;;5019446;28;20131;-60
2022/05/31 09:50:30;;;;;;;2.40;1.30;;;17.90;99.90;;;;;;5030272;28;20488;-61
2022/05/31 09:52:57;;;;;;;3.60;1.45;;;18.20;99.90;;;;;;5060993;28;20045;-60
2022/05/31 09:58:27;;;;;;;4.78;1.45;;;18.60;99.90;;;;;;5038198;28;20055;-61
2022/05/31 10:01:13;;;;;;;3.40;1.42;;;18.60;99.90;;;;;;5029441;28;20549;-61
2022/05/31 10:03:48;;;;;;;3.03;1.70;;;18.70;99.90;;;;;;5061067;28;20044;-60
2022/05/31 10:06:18;;;;;;;3.42;1.75;;;18.60;99.90;;;;;;5060101;28;20060;-60
2022/05/31 10:08:47;;;;;;;3.38;1.90;;;18.20;99.90;;;;;;5057308;28;20095;-60
2022/05/31 10:11:30;;;;;;;3.28;1.70;;;18.00;99.90;;;;;;5052427;28;20045;-59
2022/05/31 10:14:02;;;;;;;3.75;1.65;;;17.70;99.90;;;;;;5030540;28;20541;-59
2022/05/31 10:16:32;;;;;;;4.90;1.30;;;17.50;99.90;;;;;;5031084;28;20135;-59
2022/05/31 10:19:01;;;;;;;3.53;1.35;;;17.80;99.90;;;;;;5030752;28;20033;-61
2022/05/31 10:21:42;;;;;;;3.88;0.90;;;18.20;99.90;;;;;;5034564;28;20616;-60
2022/05/31 10:24:20;;;;;;;3.13;1.30;;;18.60;99.90;;;;;;5031462;28;20045;-60
2022/05/31 10:27:09;;;;;;;5.93;1.13;;;18.80;99.90;;;;;;5062064;28;20067;-60
2022/05/31 10:29:46;;;;;;;5.55;1.20;;;18.70;98.70;;;;;;5033870;28;20049;-61
2022/05/31 10:32:32;;;;;;;4.15;1.05;;;18.30;92.40;;;;;;5047201;28;20114;-59
2022/05/31 10:35:08;;;;;;;4.55;1.13;;;17.90;96.90;;;;;;5031058;28;20472;-60
2022/05/31 10:37:34;;;;;;;3.67;1.00;;;17.70;99.30;;;;;;5030354;28;20034;-60
2022/05/31 10:40:08;;;;;;;1.88;0.80;;;17.60;99.90;;;;;;5058762;28;20498;-60
2022/05/31 10:42:40;;;;;;;3.17;0.90;;;17.50;97.60;;;;;;5048157;28;20514;-60
2022/05/31 10:45:08;;;;;;;5.15;1.13;;;17.30;99.90;;;;;;5030729;28;20037;-60
2022/05/31 10:47:33;;;;;;;3.95;0.70;;;17.10;99.90;;;;;;5048540;28;20033;-60
2022/05/31 10:50:01;;;;;;;3.47;1.20;;;17.00;99.30;;;;;;5044487;28;20124;-60
2022/05/31 10:52:46;;;;;;;3.90;1.30;;;17.10;99.90;;;;;;5046830;28;20064;-59
2022/05/31 10:55:42;;;;;;;7.13;1.52;;;17.00;99.90;;;;;;5046877;28;20052;-60
2022/05/31 10:58:30;;;;;;;4.15;1.45;;;16.90;99.90;;;;;;5043312;28;20434;-59
2022/05/31 11:01:22;;;;;;;3.83;1.58;;;16.80;99.90;;;;;;5039294;28;20603;-59
2022/05/31 11:04:10;;;;;;;6.07;2.10;;;16.90;99.90;;;;;;5046102;28;20059;-60
2022/05/31 11:06:57;;;;;;;4.18;1.80;;;17.00;99.90;;;;;;5040697;28;20747;-60
2022/05/31 11:13:21;;;;;;;4.57;2.05;;;17.20;99.90;;;;;;5038377;28;20102;-60
2022/05/31 11:16:06;;;;;;;5.07;1.98;;;17.30;99.90;;;;;;5046067;28;20574;-58
2022/05/31 11:19:11;;;;;;;6.82;2.08;;;17.20;99.90;;;;;;5036868;28;20049;-59
2022/05/31 11:21:51;;;;;;;4.10;2.00;;;17.20;99.90;;;;;;5019553;28;20061;-59
2022/05/31 11:24:55;;;;;;;2.22;1.80;;;17.30;99.90;;;;;;5059391;28;20057;-59
2022/05/31 11:27:39;;;;;;;3.05;1.77;;;17.10;99.90;;;;;;4998143;28;20055;-59
2022/05/31 11:30:14;;;;;;;4.18;2.30;;;17.00;99.90;;;;;;5038762;28;20053;-60
2022/05/31 11:33:26;;;;;;;4.60;2.10;;;17.10;99.90;;;;;;5038585;28;20041;-60
2022/05/31 11:36:10;;;;;;;5.28;2.13;;;17.10;99.90;;;;;;5000055;28;20043;-59
2022/05/31 11:39:09;;;;;;;5.55;2.20;;;17.00;99.90;;;;;;5034963;28;20211;-59
2022/05/31 11:41:39;;;;;;;2.85;1.85;;;16.90;99.90;;;;;;5035120;28;20467;-59
2022/05/31 11:44:29;;;;;;;3.95;2.15;;;16.90;99.90;;;;;;5060131;28;20034;-59
2022/05/31 11:47:16;;;;;;;3.88;2.20;;;17.10;99.90;;;;;;5031183;28;20121;-59
2022/05/31 11:50:05;;;;;;;4.05;2.60;;;17.10;99.90;;;;;;5013042;28;20049;-59
2022/05/31 11:52:53;;;;;;;4.85;2.70;;;17.20;99.90;;;;;;5040972;28;20052;-59
2022/05/31 11:55:30;;;;;;;4.50;2.28;;;17.40;99.90;;;;;;5043341;28;20053;-60
2022/05/31 11:58:01;;;;;;;4.78;2.25;;;17.50;99.90;;;;;;5034670;28;20041;-59
2022/05/31 12:00:36;;;;;;;4.60;2.28;;;17.70;99.90;;;;;;5031906;28;20037;-60
2022/05/31 12:03:30;;;;;;;6.00;2.70;;;18.10;99.90;;;;;;5038830;28;20491;-60
2022/05/31 12:06:14;;;;;;;5.28;2.05;;;18.30;99.90;;;;;;5020716;28;20143;-59
2022/05/31 12:08:53;;;;;;;3.53;1.85;;;18.90;99.90;;;;;;5034707;28;20057;-60
2022/05/31 12:11:26;;;;;;;3.75;1.95;;;19.80;99.10;;;;;;5030810;28;20044;-61
2022/05/31 12:13:53;;;;;;;4.13;1.98;;;20.60;99.90;;;;;;5034234;28;20451;-60
2022/05/31 12:16:20;;;;;;;4.35;2.15;;;21.20;91.20;;;;;;5050348;28;20048;-61
2022/05/31 12:18:57;;;;;;;5.00;1.80;;;21.50;90.30;;;;;;5037106;28;20041;-60
2022/05/31 12:21:36;;;;;;;3.28;1.85;;;21.40;90.30;;;;;;5036076;28;20538;-61
2022/05/31 12:24:15;;;;;;;5.82;1.38;;;21.50;85.30;;;;;;5036651;28;20116;-60
2022/05/31 12:26:50;;;;;;;3.05;0.98;;;21.40;87.20;;;;;;5031925;28;20519;-60
2022/05/31 12:29:22;;;;;;;1.85;0.77;;;21.30;77.40;;;;;;5035892;28;20559;-60
2022/05/31 12:31:48;;;;;;;3.92;0.70;;;21.60;73.10;;;;;;5035441;28;20471;-60
2022/05/31 12:34:20;;;;;;;1.85;0.70;;;21.60;74.10;;;;;;5053366;28;20044;-60
2022/05/31 12:37:06;;;;;;;1.05;0.57;;;21.30;68.60;;;;;;5042975;28;20496;-60
2022/05/31 12:39:35;;;;;;;5.05;0.80;;;20.70;71.30;;;;;;5033534;28;20045;-60
2022/05/31 12:42:13;;;;;;;2.97;0.60;;;20.20;77.90;;;;;;5040245;28;20452;-61
2022/05/31 12:44:43;;;;;;;2.78;0.75;;;19.80;75.30;;;;;;5036868;28;20037;-60
2022/05/31 12:47:17;;;;;;;4.28;0.93;;;19.50;76.40;;;;;;5054772;28;20052;-60
2022/05/31 12:50:02;;;;;;;3.03;0.70;;;19.10;80.40;;;;;;5038181;28;20045;-60
2022/05/31 12:55:21;;;;;;;1.83;0.80;;;18.40;87.40;;;;;;5041447;28;20045;-60
2022/05/31 13:00:49;;;;;;;3.03;0.75;;;17.70;85.70;;;;;;5039434;28;20036;-60
2022/05/31 13:03:33;;;;;;;1.75;0.70;;;17.40;88.90;;;;;;5036801;28;20033;-60
2022/05/31 13:05:58;;;;;;;2.28;0.70;;;17.20;88.10;;;;;;5038082;28;20052;-61
2022/05/31 13:08:44;;;;;;;3.47;0.68;;;17.10;86.70;;;;;;5039915;28;20479;-60
2022/05/31 13:20:40;;;;;;;3.85;0.85;;;16.50;94.40;;;;;;5037731;28;20037;-60
2022/05/31 13:23:25;;;;;;;5.75;1.05;;;16.50;91.90;;;;;;5037209;28;20049;-60
2022/05/31 13:26:15;;;;;;;6.22;0.90;;;16.50;94.10;;;;;;5040328;28;20595;-61
2022/05/31 13:28:56;;;;;;;3.33;1.00;;;16.40;96.90;;;;;;5033391;28;20109;-60
2022/05/31 13:31:24;;;;;;;4.47;0.98;;;16.40;93.60;;;;;;5048056;28;20140;-59
2022/05/31 13:34:02;;;;;;;2.65;0.70;;;16.40;92.20;;;;;;5031035;28;20044;-59
2022/05/31 13:36:40;;;;;;;3.55;0.95;;;16.40;92.40;;;;;;5042902;28;20080;-59
2022/05/31 13:39:09;;;;;;;2.03;0.65;;;16.50;90.30;;;;;;5038852;28;20057;-59
2022/05/31 13:41:53;;;;;;;3.15;0.82;;;16.60;89.10;;;;;;5054149;28;20114;-59
2022/05/31 13:44:22;;;;;;;2.97;0.70;;;16.70;80.20;;;;;;5046240;28;20071;-59
2022/05/31 13:46:49;;;;;;;1.98;0.75;;;16.70;77.60;;;;;;5041705;28;20081;-59
2022/05/31 13:49:24;;;;;;;3.08;0.80;;;16.70;77.60;;;;;;5035457;28;20045;-59
2022/05/31 13:51:56;;;;;;;2.22;0.70;;;16.70;80.00;;;;;;5037148;28;20088;-59